createdAt,value
2018-12-19T00:02:24.295Z,83.40
2018-12-19T00:04:52.766Z,83.40
2018-12-19T00:07:21.164Z,83.60
2018-12-19T00:09:49.575Z,83.50
2018-12-19T00:12:18.011Z,83.30
2018-12-19T00:14:46.402Z,83.60
2018-12-19T00:17:14.814Z,83.70
2018-12-19T00:19:43.225Z,84.00
2018-12-19T00:22:11.616Z,84.70
2018-12-19T00:24:40.082Z,84.00
2018-12-19T00:27:08.478Z,83.80
2018-12-19T00:29:36.928Z,83.80
2018-12-19T00:32:05.335Z,84.10
2018-12-19T00:34:33.800Z,84.50
2018-12-19T00:37:02.215Z,84.20
2018-12-19T00:39:30.647Z,85.00
2018-12-19T00:41:59.074Z,84.50
2018-12-19T00:44:27.463Z,84.40
2018-12-19T00:46:55.893Z,84.30
2018-12-19T00:49:24.331Z,84.50
2018-12-19T00:51:52.741Z,85.40
2018-12-19T00:54:21.138Z,84.50
2018-12-19T00:56:49.549Z,84.40
2018-12-19T00:59:17.939Z,84.00
2018-12-19T01:01:46.377Z,83.70
2018-12-19T01:04:14.791Z,83.70
2018-12-19T01:06:43.386Z,83.90
2018-12-19T01:09:15.884Z,83.90
2018-12-19T01:11:42.199Z,84.00
2018-12-19T01:14:10.619Z,84.10
2018-12-19T01:16:39.027Z,84.10
2018-12-19T01:19:07.533Z,84.10
2018-12-19T01:21:35.938Z,83.80
2018-12-19T01:24:04.399Z,83.80
2018-12-19T01:26:32.786Z,83.70
2018-12-19T01:29:01.206Z,83.00
2018-12-19T01:31:29.599Z,83.30
2018-12-19T01:33:58.037Z,82.70
2018-12-19T01:36:27.088Z,83.10
2018-12-19T01:38:56.018Z,82.60
2018-12-19T01:41:24.476Z,82.70
2018-12-19T01:43:53.008Z,83.00
2018-12-19T01:46:21.486Z,83.10
2018-12-19T01:48:49.943Z,82.90
2018-12-19T01:51:18.402Z,82.70
2018-12-19T01:53:47.011Z,82.40
2018-12-19T01:56:15.479Z,82.20
2018-12-19T01:58:43.959Z,82.20
2018-12-19T02:01:12.458Z,82.00
2018-12-19T02:03:40.886Z,82.30
2018-12-19T02:06:09.367Z,82.20
2018-12-19T02:08:37.765Z,82.20
2018-12-19T02:11:06.202Z,82.20
2018-12-19T02:13:34.654Z,81.80
2018-12-19T02:16:03.110Z,82.10
2018-12-19T02:18:31.585Z,81.60
2018-12-19T02:21:00.047Z,81.70
2018-12-19T02:23:28.458Z,81.50
2018-12-19T02:25:56.896Z,81.70
2018-12-19T02:28:25.358Z,81.70
2018-12-19T02:30:53.773Z,81.60
2018-12-19T02:33:22.188Z,81.70
2018-12-19T02:35:50.556Z,81.80
2018-12-19T02:38:19.003Z,82.00
2018-12-19T02:40:47.445Z,81.90
2018-12-19T02:43:15.887Z,82.10
2018-12-19T02:45:44.322Z,82.10
2018-12-19T02:48:12.722Z,81.70
2018-12-19T02:50:41.158Z,81.80
2018-12-19T02:53:09.565Z,81.70
2018-12-19T02:55:37.967Z,82.00
2018-12-19T02:58:06.375Z,82.60
2018-12-19T03:00:34.807Z,82.90
2018-12-19T03:03:03.284Z,82.80
2018-12-19T03:05:31.665Z,82.50
2018-12-19T03:08:00.087Z,82.50
2018-12-19T03:10:28.507Z,82.20
2018-12-19T03:12:56.925Z,82.30
2018-12-19T03:15:25.313Z,82.30
2018-12-19T03:17:53.800Z,82.40
2018-12-19T03:20:22.307Z,82.50
2018-12-19T03:22:50.728Z,82.60
2018-12-19T03:25:19.270Z,82.60
2018-12-19T03:27:47.659Z,82.50
2018-12-19T03:30:16.064Z,82.50
2018-12-19T03:32:44.472Z,82.50
2018-12-19T03:35:12.862Z,82.40
2018-12-19T03:37:41.306Z,82.20
2018-12-19T03:40:09.706Z,82.20
2018-12-19T03:42:38.222Z,82.30
2018-12-19T03:45:07.157Z,82.40
2018-12-19T03:47:35.594Z,82.10
2018-12-19T03:50:04.274Z,81.80
2018-12-19T03:52:32.670Z,81.80
2018-12-19T03:55:01.113Z,81.50
2018-12-19T03:57:29.725Z,81.60
2018-12-19T03:59:58.179Z,81.20
2018-12-19T04:02:26.570Z,81.00
2018-12-19T04:04:54.998Z,81.00
2018-12-19T04:07:23.389Z,81.70
2018-12-19T04:09:57.800Z,82.20
2018-12-19T04:12:22.231Z,82.60
2018-12-19T04:14:50.634Z,82.70
2018-12-19T04:17:19.068Z,83.30
2018-12-19T04:19:47.490Z,84.40
2018-12-19T04:22:15.890Z,85.60
2018-12-19T04:24:44.302Z,86.60
2018-12-19T04:27:12.722Z,87.00
2018-12-19T04:29:41.483Z,88.00
2018-12-19T04:32:09.990Z,88.50
2018-12-19T04:34:38.436Z,89.20
2018-12-19T04:37:06.854Z,89.80
2018-12-19T04:39:35.317Z,90.00
2018-12-19T04:42:03.783Z,90.20
2018-12-19T04:44:32.197Z,90.50
2018-12-19T04:47:00.608Z,90.50
2018-12-19T04:49:29.025Z,90.70
2018-12-19T04:51:57.467Z,90.80
2018-12-19T04:54:25.890Z,90.80
2018-12-19T04:56:54.306Z,91.00
2018-12-19T04:59:22.757Z,91.10
2018-12-19T05:01:51.246Z,91.30
2018-12-19T05:04:19.800Z,91.60
2018-12-19T05:06:48.227Z,91.60
2018-12-19T05:09:16.639Z,91.90
2018-12-19T05:11:45.205Z,91.80
2018-12-19T05:14:13.852Z,91.90
2018-12-19T05:16:42.290Z,91.80
2018-12-19T05:19:10.755Z,92.00
2018-12-19T05:21:39.218Z,92.20
2018-12-19T05:24:07.745Z,92.20
2018-12-19T05:26:36.196Z,92.10
2018-12-19T05:29:04.746Z,92.10
2018-12-19T05:31:33.170Z,92.00
2018-12-19T05:34:01.623Z,92.10
2018-12-19T05:36:30.047Z,92.00
2018-12-19T05:38:58.663Z,92.10
2018-12-19T05:41:27.091Z,92.30
2018-12-19T05:43:55.538Z,92.10
2018-12-19T05:46:23.964Z,92.10
2018-12-19T05:48:52.451Z,92.10
2018-12-19T05:51:20.886Z,92.00
2018-12-19T05:53:49.321Z,91.80
2018-12-19T05:56:17.825Z,91.70
2018-12-19T05:58:46.363Z,91.80
2018-12-19T06:01:14.799Z,91.40
2018-12-19T06:03:43.279Z,91.70
2018-12-19T06:06:11.698Z,91.80
2018-12-19T06:08:40.109Z,91.70
2018-12-19T06:11:08.510Z,91.70
2018-12-19T06:13:36.953Z,91.60
2018-12-19T06:16:05.386Z,91.60
2018-12-19T06:18:33.819Z,91.50
2018-12-19T06:21:02.262Z,91.60
2018-12-19T06:23:30.676Z,91.80
2018-12-19T06:25:59.103Z,91.70
2018-12-19T06:28:27.510Z,91.80
2018-12-19T06:30:55.940Z,92.00
2018-12-19T06:33:24.363Z,91.70
2018-12-19T06:35:52.780Z,91.80
2018-12-19T06:38:21.241Z,91.90
2018-12-19T06:40:49.662Z,91.80
2018-12-19T06:43:18.072Z,91.70
2018-12-19T06:45:46.505Z,91.80
2018-12-19T06:48:14.913Z,92.20
2018-12-19T06:50:43.399Z,91.90
2018-12-19T06:53:11.786Z,92.00
2018-12-19T06:55:40.214Z,91.80
2018-12-19T06:58:08.653Z,91.70
2018-12-19T07:00:37.219Z,91.70
2018-12-19T07:03:05.611Z,91.70
2018-12-19T07:05:34.095Z,91.80
2018-12-19T07:08:02.517Z,91.70
2018-12-19T07:10:30.958Z,91.90
2018-12-19T07:12:59.428Z,91.80
2018-12-19T07:15:27.869Z,91.90
2018-12-19T07:17:56.356Z,91.90
2018-12-19T07:20:24.779Z,91.80
2018-12-19T07:22:53.207Z,92.00
2018-12-19T07:25:21.634Z,92.00
2018-12-19T07:27:50.055Z,92.00
2018-12-19T07:30:18.454Z,91.90
2018-12-19T07:32:46.838Z,91.90
2018-12-19T07:35:15.267Z,92.10
2018-12-19T07:37:43.685Z,91.90
2018-12-19T07:40:12.074Z,91.90
2018-12-19T07:42:40.498Z,92.10
2018-12-19T07:45:08.909Z,92.40
2018-12-19T07:47:37.351Z,91.90
2018-12-19T07:50:06.233Z,91.90
2018-12-19T07:52:34.650Z,92.10
2018-12-19T07:55:03.334Z,92.10
2018-12-19T07:57:31.872Z,91.70
2018-12-19T08:00:00.259Z,91.90
2018-12-19T08:02:28.696Z,91.90
2018-12-19T08:04:57.109Z,92.00
2018-12-19T08:07:25.548Z,92.10
2018-12-19T08:09:54.086Z,92.00
2018-12-19T08:12:22.501Z,91.90
2018-12-19T08:14:55.146Z,92.00
2018-12-19T08:17:23.543Z,92.10
2018-12-19T08:19:51.953Z,92.10
2018-12-19T08:22:20.383Z,92.00
2018-12-19T08:24:48.756Z,91.80
2018-12-19T08:27:17.162Z,91.90
2018-12-19T08:29:45.579Z,91.80
2018-12-19T08:32:14.023Z,91.90
2018-12-19T08:34:42.466Z,91.80
2018-12-19T08:37:10.993Z,91.90
2018-12-19T08:39:39.479Z,91.80
2018-12-19T08:42:07.878Z,91.80
2018-12-19T08:44:36.273Z,91.90
2018-12-19T08:47:04.683Z,91.70
2018-12-19T08:49:33.078Z,91.80
2018-12-19T08:52:01.502Z,91.70
2018-12-19T08:54:29.889Z,91.50
2018-12-19T08:56:58.267Z,91.50
2018-12-19T08:59:26.670Z,91.60
2018-12-19T09:01:55.054Z,91.60
2018-12-19T09:04:25.887Z,91.50
2018-12-19T09:06:53.866Z,91.10
2018-12-19T09:09:22.253Z,91.20
2018-12-19T09:11:50.627Z,91.00
2018-12-19T09:14:19.022Z,90.90
2018-12-19T09:16:47.424Z,90.50
2018-12-19T09:19:15.846Z,90.30
2018-12-19T09:21:44.234Z,90.00
2018-12-19T09:24:12.731Z,89.70
2018-12-19T09:26:41.105Z,89.30
2018-12-19T09:29:09.510Z,89.50
2018-12-19T09:31:39.570Z,89.10
2018-12-19T09:34:08.000Z,88.80
2018-12-19T09:36:36.391Z,88.70
2018-12-19T09:39:06.421Z,88.20
2018-12-19T09:41:34.829Z,89.30
2018-12-19T09:44:03.307Z,89.80
2018-12-19T09:46:31.840Z,88.70
2018-12-19T09:49:00.298Z,88.50
2018-12-19T09:51:28.682Z,88.50
2018-12-19T09:53:57.081Z,88.50
2018-12-19T09:56:25.466Z,88.60
2018-12-19T09:58:53.890Z,88.20
2018-12-19T10:01:22.287Z,88.10
2018-12-19T10:03:50.685Z,87.70
2018-12-19T10:06:19.081Z,87.70
2018-12-19T10:08:47.565Z,88.20
2018-12-19T10:11:18.868Z,89.00
2018-12-19T10:13:46.453Z,88.60
2018-12-19T10:16:14.898Z,89.00
2018-12-19T10:18:43.492Z,89.40
2018-12-19T10:21:11.907Z,89.80
2018-12-19T10:23:40.288Z,90.30
2018-12-19T10:26:13.730Z,90.50
2018-12-19T10:28:42.117Z,90.60
2018-12-19T10:31:10.538Z,90.40
2018-12-19T10:33:38.951Z,90.60
2018-12-19T10:36:07.398Z,90.80
2018-12-19T10:38:35.801Z,91.00
2018-12-19T10:41:04.254Z,90.70
2018-12-19T10:43:33.558Z,90.70
2018-12-19T10:46:02.007Z,90.50
2018-12-19T10:48:30.445Z,90.60
2018-12-19T10:50:58.846Z,90.70
2018-12-19T10:53:27.234Z,90.60
2018-12-19T10:55:55.759Z,90.40
2018-12-19T10:58:24.159Z,90.30
2018-12-19T11:00:57.946Z,90.30
2018-12-19T11:03:26.419Z,90.60
2018-12-19T11:05:54.878Z,89.80
2018-12-19T11:08:23.363Z,89.20
2018-12-19T11:10:51.819Z,89.30
2018-12-19T11:13:20.207Z,89.10
2018-12-19T11:15:48.613Z,89.00
2018-12-19T11:18:17.017Z,89.40
2018-12-19T11:20:45.513Z,89.20
2018-12-19T11:23:13.900Z,89.20
2018-12-19T11:25:42.309Z,88.80
2018-12-19T11:28:10.735Z,87.90
2018-12-19T11:30:39.158Z,87.20
2018-12-19T11:33:07.553Z,86.20
2018-12-19T11:35:36.753Z,85.40
2018-12-19T11:38:05.169Z,85.00
2018-12-19T11:40:33.604Z,83.90
2018-12-19T11:43:02.102Z,83.30
2018-12-19T11:45:30.500Z,83.00
2018-12-19T11:47:58.927Z,82.70
2018-12-19T11:50:27.329Z,82.00
2018-12-19T11:52:55.746Z,81.40
2018-12-19T11:55:24.159Z,80.60
2018-12-19T11:57:52.578Z,80.10
2018-12-19T12:00:21.063Z,79.50
2018-12-19T12:02:49.459Z,79.50
2018-12-19T12:05:17.922Z,79.70
2018-12-19T12:07:46.293Z,80.00
2018-12-19T12:10:14.683Z,80.10
2018-12-19T12:12:43.076Z,80.20
2018-12-19T12:15:11.492Z,80.20
2018-12-19T12:17:39.897Z,80.40
2018-12-19T12:20:09.025Z,80.60
2018-12-19T12:22:37.487Z,80.50
2018-12-19T12:25:06.396Z,81.00
2018-12-19T12:27:34.814Z,80.50
2018-12-19T12:30:03.486Z,80.40
2018-12-19T12:32:31.932Z,80.70
2018-12-19T12:35:00.340Z,81.30
2018-12-19T12:37:28.754Z,80.80
2018-12-19T12:39:57.179Z,80.30
2018-12-19T12:42:25.554Z,80.40
2018-12-19T12:44:54.302Z,80.20
2018-12-19T12:47:22.842Z,79.70
2018-12-19T12:49:51.295Z,79.10
2018-12-19T12:52:19.718Z,78.60
2018-12-19T12:54:48.155Z,76.60
2018-12-19T12:57:16.551Z,76.00
2018-12-19T12:59:44.941Z,74.80
2018-12-19T13:02:13.486Z,74.30
2018-12-19T13:04:41.897Z,74.70
2018-12-19T13:07:10.285Z,75.30
2018-12-19T13:09:38.678Z,75.60
2018-12-19T13:12:07.059Z,75.20
2018-12-19T13:14:35.480Z,74.80
2018-12-19T13:17:03.893Z,74.70
2018-12-19T13:19:32.467Z,72.50
2018-12-19T13:22:00.886Z,72.10
2018-12-19T13:24:29.338Z,73.70
2018-12-19T13:26:57.878Z,73.60
2018-12-19T13:29:26.279Z,73.70
2018-12-19T13:31:54.858Z,74.10
2018-12-19T13:34:23.276Z,75.10
2018-12-19T13:36:51.672Z,75.10
2018-12-19T13:39:20.073Z,75.30
2018-12-19T13:41:48.593Z,74.80
2018-12-19T13:44:17.006Z,74.60
2018-12-19T13:46:45.406Z,74.70
2018-12-19T13:49:13.770Z,74.70
2018-12-19T13:51:42.186Z,75.10
2018-12-19T13:54:10.568Z,74.80
2018-12-19T13:56:39.100Z,75.90
2018-12-19T13:59:08.613Z,76.20
2018-12-19T14:01:37.119Z,76.80
2018-12-19T14:04:05.585Z,77.60
2018-12-19T14:06:34.107Z,78.50
2018-12-19T14:09:02.497Z,80.20
2018-12-19T14:11:30.931Z,79.90
2018-12-19T14:13:59.323Z,80.90
2018-12-19T14:16:27.722Z,81.40
2018-12-19T14:18:56.110Z,81.70
2018-12-19T14:21:24.516Z,82.50
2018-12-19T14:23:52.973Z,82.70
2018-12-19T14:26:21.501Z,83.10
2018-12-19T14:28:49.880Z,84.30
2018-12-19T14:31:18.291Z,84.20
2018-12-19T14:33:46.829Z,84.70
2018-12-19T14:36:15.234Z,85.40
2018-12-19T14:38:43.666Z,86.40
2018-12-19T14:41:12.052Z,86.80
2018-12-19T14:43:40.488Z,87.10
2018-12-19T14:46:08.884Z,86.70
2018-12-19T14:48:37.385Z,86.30
2018-12-19T14:51:05.917Z,86.20
2018-12-19T14:53:34.335Z,86.50
2018-12-19T14:56:02.782Z,86.50
2018-12-19T14:58:31.245Z,86.20
2018-12-19T15:00:59.822Z,86.20
2018-12-19T15:03:28.274Z,86.10
2018-12-19T15:05:56.740Z,85.20
2018-12-19T15:08:25.166Z,85.30
2018-12-19T15:10:53.592Z,85.30
2018-12-19T15:13:22.026Z,85.20
2018-12-19T15:15:55.645Z,85.10
2018-12-19T15:18:24.209Z,84.80
2018-12-19T15:20:53.146Z,85.10
2018-12-19T15:23:21.605Z,85.00
2018-12-19T15:25:50.163Z,84.70
2018-12-19T15:28:18.596Z,84.90
2018-12-19T15:30:47.011Z,84.80
2018-12-19T15:33:15.553Z,84.90
2018-12-19T15:35:44.054Z,84.90
2018-12-19T15:38:12.511Z,84.90
2018-12-19T15:40:41.015Z,85.10
2018-12-19T15:43:09.594Z,85.10
2018-12-19T15:45:38.027Z,85.00
2018-12-19T15:48:06.469Z,84.50
2018-12-19T15:50:34.997Z,84.40
2018-12-19T15:53:03.447Z,84.10
2018-12-19T15:55:31.848Z,84.10
2018-12-19T15:58:00.305Z,84.10
2018-12-19T16:00:28.737Z,84.10
2018-12-19T16:02:57.150Z,84.20
2018-12-19T16:05:25.647Z,84.30
2018-12-19T16:07:54.206Z,84.50
2018-12-19T16:10:22.767Z,84.80
2018-12-19T16:12:51.220Z,84.70
2018-12-19T16:15:19.724Z,84.50
2018-12-19T16:17:48.395Z,84.70
2018-12-19T16:20:16.839Z,84.60
2018-12-19T16:22:45.367Z,84.90
2018-12-19T16:25:13.790Z,85.30
2018-12-19T16:27:42.206Z,85.40
2018-12-19T16:30:10.921Z,85.50
2018-12-19T16:32:39.325Z,86.60
2018-12-19T16:35:07.835Z,86.20
2018-12-19T16:37:36.289Z,86.20
2018-12-19T16:40:04.900Z,86.20
2018-12-19T16:42:33.332Z,86.50
2018-12-19T16:45:01.874Z,86.60
2018-12-19T16:47:30.414Z,86.80
2018-12-19T16:49:58.970Z,87.10
2018-12-19T16:52:27.378Z,87.40
2018-12-19T16:54:55.806Z,87.70
2018-12-19T16:57:24.213Z,88.10
2018-12-19T16:59:52.646Z,88.30
2018-12-19T17:02:21.069Z,87.90
2018-12-19T17:04:49.539Z,87.80
2018-12-19T17:07:17.959Z,88.00
2018-12-19T17:09:46.373Z,88.20
2018-12-19T17:12:14.794Z,88.30
2018-12-19T17:14:43.230Z,88.60
2018-12-19T17:17:11.643Z,88.40
2018-12-19T17:19:40.150Z,88.60
2018-12-19T17:22:08.635Z,89.00
2018-12-19T17:24:39.905Z,89.10
2018-12-19T17:27:08.355Z,90.00
2018-12-19T17:29:36.811Z,89.60
2018-12-19T17:32:05.335Z,90.10
2018-12-19T17:34:33.757Z,89.90
2018-12-19T17:37:02.246Z,89.90
2018-12-19T17:39:30.694Z,90.00
2018-12-19T17:41:59.115Z,90.00
2018-12-19T17:44:27.515Z,90.00
2018-12-19T17:46:56.021Z,89.80
2018-12-19T17:49:24.446Z,89.40
2018-12-19T17:51:52.881Z,88.90
2018-12-19T17:54:21.308Z,88.90
2018-12-19T17:56:49.956Z,89.40
2018-12-19T17:59:18.379Z,89.30
2018-12-19T18:01:46.903Z,89.20
2018-12-19T18:04:15.426Z,88.80
2018-12-19T18:06:43.891Z,88.90
2018-12-19T18:09:12.379Z,89.60
2018-12-19T18:11:40.866Z,88.90
2018-12-19T18:14:09.485Z,89.20
2018-12-19T18:16:37.966Z,89.10
2018-12-19T18:19:06.448Z,89.30
2018-12-19T18:21:34.846Z,89.10
2018-12-19T18:24:03.453Z,89.20
2018-12-19T18:26:31.890Z,89.20
2018-12-19T18:29:00.308Z,88.70
2018-12-19T18:31:28.772Z,89.00
2018-12-19T18:33:57.245Z,89.00
2018-12-19T18:36:25.664Z,88.80
2018-12-19T18:38:54.101Z,89.20
2018-12-19T18:41:22.485Z,89.20
2018-12-19T18:43:50.917Z,89.20
2018-12-19T18:46:19.339Z,89.40
2018-12-19T18:48:47.775Z,89.80
2018-12-19T18:51:16.235Z,89.80
2018-12-19T18:53:44.674Z,89.50
2018-12-19T18:56:13.096Z,90.00
2018-12-19T18:58:41.664Z,90.10
2018-12-19T19:01:10.062Z,90.20
2018-12-19T19:03:38.591Z,90.30
2018-12-19T19:06:07.076Z,90.50
2018-12-19T19:08:35.546Z,90.30
2018-12-19T19:11:04.116Z,90.50
2018-12-19T19:13:32.638Z,90.50
2018-12-19T19:16:01.045Z,90.70
2018-12-19T19:18:29.450Z,90.70
2018-12-19T19:20:57.874Z,90.90
2018-12-19T19:23:26.582Z,90.90
2018-12-19T19:25:55.069Z,90.80
2018-12-19T19:28:23.504Z,90.90
2018-12-19T19:30:52.071Z,90.80
2018-12-19T19:33:20.498Z,90.90
2018-12-19T19:35:48.913Z,90.90
2018-12-19T19:38:17.298Z,90.90
2018-12-19T19:40:45.830Z,90.90
2018-12-19T19:43:14.241Z,90.80
2018-12-19T19:45:43.482Z,90.80
2018-12-19T19:48:11.901Z,90.80
2018-12-19T19:50:40.372Z,90.80
2018-12-19T19:53:08.877Z,90.90
2018-12-19T19:55:37.371Z,91.00
2018-12-19T19:58:05.798Z,91.10
2018-12-19T20:00:35.685Z,91.10
2018-12-19T20:03:04.246Z,91.20
2018-12-19T20:05:32.675Z,91.10
2018-12-19T20:08:01.100Z,91.10
2018-12-19T20:10:29.526Z,91.10
2018-12-19T20:12:57.944Z,90.90
2018-12-19T20:15:26.503Z,91.10
2018-12-19T20:17:55.135Z,91.10
2018-12-19T20:20:23.603Z,91.20
2018-12-19T20:22:52.054Z,91.40
2018-12-19T20:25:21.057Z,91.30
2018-12-19T20:27:49.522Z,91.30
2018-12-19T20:30:19.141Z,91.30
2018-12-19T20:32:48.374Z,91.50
2018-12-19T20:35:17.441Z,91.80
2018-12-19T20:37:48.794Z,92.10
2018-12-19T20:40:17.241Z,92.30
2018-12-19T20:42:45.654Z,92.50
2018-12-19T20:45:14.879Z,92.60
2018-12-19T20:47:43.358Z,92.90
2018-12-19T20:50:11.862Z,92.90
2018-12-19T20:52:40.402Z,93.10
2018-12-19T20:55:08.873Z,93.00
2018-12-19T20:57:37.450Z,93.10
2018-12-19T21:00:07.556Z,93.20
2018-12-19T21:02:36.118Z,93.30
2018-12-19T21:05:10.167Z,93.50
2018-12-19T21:07:38.759Z,93.70
2018-12-19T21:10:07.339Z,93.90
2018-12-19T21:12:35.934Z,94.10
2018-12-19T21:15:07.774Z,94.40
2018-12-19T21:17:41.639Z,94.50
2018-12-19T21:23:18.411Z,94.80
2018-12-19T21:25:46.879Z,95.00
2018-12-19T21:28:15.349Z,95.30
2018-12-19T21:30:43.922Z,95.40
2018-12-19T21:33:14.106Z,95.50
2018-12-19T21:35:42.917Z,95.50
2018-12-19T21:38:11.421Z,95.80
2018-12-19T21:40:39.947Z,95.80
2018-12-19T21:43:11.180Z,95.70
2018-12-19T21:45:40.115Z,95.70
2018-12-19T21:48:08.702Z,95.90
2018-12-19T21:50:53.663Z,95.80
2018-12-19T21:53:22.182Z,95.90
2018-12-19T21:55:50.597Z,95.80
2018-12-19T21:58:19.101Z,95.80
2018-12-19T22:00:47.607Z,95.90
2018-12-19T22:03:16.039Z,96.00
2018-12-19T22:05:44.562Z,96.10
2018-12-19T22:08:13.096Z,96.00
2018-12-19T22:10:41.770Z,95.80
2018-12-19T22:13:10.307Z,95.80
2018-12-19T22:15:39.017Z,95.90
2018-12-19T22:18:12.900Z,95.70
2018-12-19T22:20:41.340Z,95.70
2018-12-19T22:23:09.982Z,95.60
2018-12-19T22:25:38.569Z,95.70
2018-12-19T22:28:07.099Z,95.70
2018-12-19T22:30:35.559Z,95.80
2018-12-19T22:33:04.078Z,95.80
2018-12-19T22:35:32.539Z,96.00
2018-12-19T22:38:00.963Z,96.00
2018-12-19T22:40:29.397Z,96.10
2018-12-19T22:42:57.924Z,96.20
2018-12-19T22:45:26.480Z,96.30
2018-12-19T22:47:55.120Z,96.20
2018-12-19T22:50:23.755Z,96.20
2018-12-19T22:52:52.381Z,96.20
2018-12-19T22:55:20.986Z,96.10
2018-12-19T22:57:49.456Z,96.20
2018-12-19T23:00:18.075Z,96.30
2018-12-19T23:02:51.889Z,96.30
2018-12-19T23:05:25.918Z,96.10
2018-12-19T23:07:54.347Z,96.10
2018-12-19T23:10:22.814Z,96.10
2018-12-19T23:12:51.342Z,96.10
2018-12-19T23:15:20.104Z,95.50
2018-12-19T23:17:48.625Z,95.90
2018-12-19T23:20:17.352Z,96.10
2018-12-19T23:22:45.901Z,96.40
2018-12-19T23:25:14.572Z,96.70
2018-12-19T23:27:43.087Z,97.00
2018-12-19T23:30:11.746Z,97.10
2018-12-19T23:32:40.351Z,97.40
2018-12-19T23:35:08.895Z,97.50
2018-12-19T23:37:37.518Z,97.60
2018-12-19T23:40:06.320Z,97.60
2018-12-19T23:42:34.867Z,97.50
2018-12-19T23:45:03.837Z,97.40
2018-12-19T23:47:32.287Z,97.30
2018-12-19T23:50:00.762Z,97.30
2018-12-19T23:52:29.384Z,97.30
2018-12-19T23:54:57.832Z,97.40
2018-12-19T23:57:26.729Z,97.30
2018-12-19T23:59:55.335Z,97.50
